Terminal Aerodrome Forecast
Issued by NWS Bismarck, ND

Home | Current Version | Previous Version | Graphics & Text | Print | Product List | Glossary On
Versions: 1 2 3 4 5 6 7 8 9 10 11 12 13 14 15 16 17
000
FTUS43 KBIS 230422 AAB
TAFBIS
TAF AMD
KBIS 230422Z 2304/2324 31018G28KT P6SM VCSH SCT035 BKN070
     FM230700 31016G24KT P6SM SCT015 OVC035
      TEMPO 2307/2311 BKN025
     FM231400 31018G27KT P6SM FEW025 SCT040
     FM231800 32020G29KT P6SM FEW045 SCT200=

USA.gov is the U.S. government's official web portal to all federal, state and local government web resources and services.